Snow/Ice From: 16-12-2017 16:00 Until: 17-12-2017 16:00 warning for: Snow/Ice Level: Yellow info button

Although rather usual in this region, locally or potentially dangerous phenomena are expected. (such as local winds, summer thunderstorms, rising streams or high waves) Be aware and pay attention to the latest weather updates, especially if you carry out activities exposed to weather or close to a stream or shoreline. 


Meteo18 Weather Cam more information Meteo18 Weather Cam


Thunder radar more information blitzortung!


warning for Snow/Ice more information rain snow radar


Visit our other weather sites:

Template documentation
and downloads

And another site



Weather Underground History page Text

Daily Summary for August 15, 2017 Units:  Both    English   Metric
« Previous Day
Next Day »
Daily Weekly Monthly Yearly Custom
  High: Low: Average:
Temperature: 76.8 °F /  24.9 °C 64.2 °F /  17.9 °C 69.1 °F /  20.6 °C
Dew Point: 66.6 °F /  19.2 °C 59.7 °F /  15.4 °C 63.1 °F /  17.3 °C
Humidity: 92 % 62 % 82 %
Wind Speed: 21 mph /  33.8 km/h - 2.7 mph /  4.3 km/h
Wind Gust: 28 mph /  45.1 km/h - -
Wind:- - SW
Pressure: 30.2 in /  1021.2 hPa 30 in /  1015.5 hPa -
Precipitation: 0.16 in /  4.1 mm    
Historical Graphs
 
 
Tabular Data for August 15, 2017
Time Temperature Dew Point Pressure Wind Wind Speed Wind Gust Humidity Rainfall Rate (Hourly)
00:02 68.2 °F /  20.1 °C 59.9 °F /  15.5 °C 30 in /  1015.8 hPa Calm     75 % 0 in /  0.0 mm
00:07 68.4 °F /  20.2 °C 60.1 °F /  15.6 °C 30 in /  1015.8 hPa Calm     75 % 0 in /  0.0 mm
00:12 68.4 °F /  20.2 °C 60.1 °F /  15.6 °C 30 in /  1015.8 hPa Calm     75 % 0 in /  0.0 mm
00:17 68.4 °F /  20.2 °C 60.4 °F /  15.8 °C 30 in /  1015.8 hPa Calm     76 % 0 in /  0.0 mm
00:22 67.8 °F /  19.9 °C 60.3 °F /  15.7 °C 30 in /  1015.8 hPa Calm     77 % 0 in /  0.0 mm
00:32 67.8 °F /  19.9 °C 60.3 °F /  15.7 °C 30 in /  1015.8 hPa Calm     77 % 0 in /  0.0 mm
00:42 67.6 °F /  19.8 °C 60.3 °F /  15.7 °C 30 in /  1015.8 hPa Calm     77 % 0 in /  0.0 mm
00:52 67.5 °F /  19.7 °C 60.1 °F /  15.6 °C 30 in /  1015.5 hPa Calm     77 % 0 in /  0.0 mm
00:57 67.5 °F /  19.7 °C 60.1 °F /  15.6 °C 30 in /  1015.5 hPa Calm     77 % 0 in /  0.0 mm
01:02 67.3 °F /  19.6 °C 59.9 °F /  15.5 °C 30 in /  1015.5 hPa Calm     77 % 0 in /  0.0 mm
01:12 66.9 °F /  19.4 °C 59.9 °F /  15.5 °C 30 in /  1015.5 hPa Calm     78 % 0 in /  0.0 mm
01:17 66.9 °F /  19.4 °C 59.9 °F /  15.5 °C 30 in /  1015.5 hPa Calm     78 % 0 in /  0.0 mm
01:22 66.7 °F /  19.3 °C 60.1 °F /  15.6 °C 30 in /  1015.5 hPa Calm     79 % 0 in /  0.0 mm
01:32 66.7 °F /  19.3 °C 59.7 °F /  15.4 °C 30 in /  1015.5 hPa Calm     78 % 0 in /  0.0 mm
01:37 66.7 °F /  19.3 °C 59.7 °F /  15.4 °C 30 in /  1015.5 hPa Calm     78 % 0 in /  0.0 mm
01:42 66.6 °F /  19.2 °C 59.9 °F /  15.5 °C 30 in /  1015.5 hPa Calm     79 % 0 in /  0.0 mm
01:47 66.4 °F /  19.1 °C 60.1 °F /  15.6 °C 30 in /  1015.5 hPa Calm     80 % 0 in /  0.0 mm
01:52 66.2 °F /  19.0 °C 59.9 °F /  15.5 °C 30 in /  1015.5 hPa Calm     80 % 0 in /  0.0 mm
01:57 66.2 °F /  19.0 °C 59.9 °F /  15.5 °C 30 in /  1015.5 hPa Calm     80 % 0 in /  0.0 mm
02:02 66.2 °F /  19.0 °C 59.9 °F /  15.5 °C 30 in /  1015.5 hPa Calm     80 % 0 in /  0.0 mm
02:07 66.4 °F /  19.1 °C 60.1 °F /  15.6 °C 30 in /  1015.8 hPa Calm     80 % 0 in /  0.0 mm
02:12 66.2 °F /  19.0 °C 59.9 °F /  15.5 °C 30 in /  1015.8 hPa Calm     80 % 0 in /  0.0 mm
02:17 66 °F /  18.9 °C 60.1 °F /  15.6 °C 30 in /  1015.8 hPa Calm     81 % 0 in /  0.0 mm
02:22 66 °F /  18.9 °C 59.7 °F /  15.4 °C 30 in /  1015.8 hPa Calm     80 % 0 in /  0.0 mm
02:27 66.6 °F /  19.2 °C 60.3 °F /  15.7 °C 30 in /  1015.8 hPa Calm     80 % 0 in /  0.0 mm
02:32 66.6 °F /  19.2 °C 60.3 °F /  15.7 °C 30 in /  1015.8 hPa Calm     80 % 0 in /  0.0 mm
02:37 66.6 °F /  19.2 °C 59.9 °F /  15.5 °C 30 in /  1015.8 hPa Calm     79 % 0 in /  0.0 mm
02:42 66.6 °F /  19.2 °C 59.9 °F /  15.5 °C 30 in /  1015.8 hPa Calm     79 % 0 in /  0.0 mm
02:47 66.7 °F /  19.3 °C 60.1 °F /  15.6 °C 30 in /  1015.8 hPa Calm     79 % 0 in /  0.0 mm
02:52 66.7 °F /  19.3 °C 60.1 °F /  15.6 °C 30 in /  1015.8 hPa Calm     79 % 0 in /  0.0 mm
02:57 66.7 °F /  19.3 °C 60.4 °F /  15.8 °C 30 in /  1015.8 hPa Calm     80 % 0 in /  0.0 mm
03:02 66.7 °F /  19.3 °C 60.1 °F /  15.6 °C 30 in /  1015.8 hPa Calm     79 % 0 in /  0.0 mm
03:12 66.9 °F /  19.4 °C 60.3 °F /  15.7 °C 30 in /  1015.8 hPa Calm     79 % 0 in /  0.0 mm
03:17 66.7 °F /  19.3 °C 60.1 °F /  15.6 °C 30 in /  1015.8 hPa Calm     79 % 0 in /  0.0 mm
03:22 66.9 °F /  19.4 °C 60.3 °F /  15.7 °C 30 in /  1015.8 hPa Calm     79 % 0 in /  0.0 mm
03:32 68.2 °F /  20.1 °C 60.3 °F /  15.7 °C 30 in /  1015.8 hPa Calm     76 % 0 in /  0.0 mm
03:37 68.4 °F /  20.2 °C 60.4 °F /  15.8 °C 30 in /  1015.8 hPa SSW 2 mph /  3.2 km/h   76 % 0 in /  0.0 mm
03:42 68 °F /  20.0 °C 60.4 °F /  15.8 °C 30 in /  1015.5 hPa SW 1 mph /  1.6 km/h 4 mph /  6.4 km/h 77 % 0 in /  0.0 mm
03:52 67.6 °F /  19.8 °C 60.6 °F /  15.9 °C 30 in /  1015.8 hPa Calm   3 mph /  4.8 km/h 78 % 0 in /  0.0 mm
03:57 67.5 °F /  19.7 °C 60.8 °F /  16.0 °C 30 in /  1015.8 hPa Calm   3 mph /  4.8 km/h 79 % 0 in /  0.0 mm
04:02 67.1 °F /  19.5 °C 60.8 °F /  16.0 °C 30 in /  1015.8 hPa SSE 1 mph /  1.6 km/h 3 mph /  4.8 km/h 80 % 0 in /  0.0 mm
04:07 66.9 °F /  19.4 °C 60.6 °F /  15.9 °C 30 in /  1015.8 hPa SSW 1 mph /  1.6 km/h 3 mph /  4.8 km/h 80 % 0 in /  0.0 mm
04:12 66.9 °F /  19.4 °C 60.6 °F /  15.9 °C 30 in /  1015.8 hPa Calm   3 mph /  4.8 km/h 80 % 0 in /  0.0 mm
04:17 66.9 °F /  19.4 °C 60.6 °F /  15.9 °C 30 in /  1015.8 hPa Calm   3 mph /  4.8 km/h 80 % 0 in /  0.0 mm
04:22 66.9 °F /  19.4 °C 60.6 °F /  15.9 °C 30 in /  1015.8 hPa Calm   3 mph /  4.8 km/h 80 % 0 in /  0.0 mm
04:32 66.7 °F /  19.3 °C 60.8 °F /  16.0 °C 30 in /  1015.5 hPa Calm   2 mph /  3.2 km/h 81 % 0 in /  0.0 mm
04:37 66.4 °F /  19.1 °C 60.8 °F /  16.0 °C 30 in /  1015.8 hPa Calm   2 mph /  3.2 km/h 82 % 0 in /  0.0 mm
04:42 66.2 °F /  19.0 °C 60.6 °F /  15.9 °C 30 in /  1015.5 hPa Calm     82 % 0 in /  0.0 mm
04:47 66 °F /  18.9 °C 60.6 °F /  15.9 °C 30 in /  1015.8 hPa Calm     83 % 0 in /  0.0 mm
04:52 66 °F /  18.9 °C 60.6 °F /  15.9 °C 30 in /  1015.8 hPa Calm     83 % 0 in /  0.0 mm
04:57 66 °F /  18.9 °C 60.6 °F /  15.9 °C 30 in /  1015.8 hPa Calm     83 % 0 in /  0.0 mm
05:02 66 °F /  18.9 °C 60.6 °F /  15.9 °C 30 in /  1015.8 hPa SSW 2 mph /  3.2 km/h   83 % 0 in /  0.0 mm
05:17 65.7 °F /  18.7 °C 61 °F /  16.1 °C 30 in /  1015.8 hPa SW 1 mph /  1.6 km/h 4 mph /  6.4 km/h 85 % 0 in /  0.0 mm
05:22 65.7 °F /  18.7 °C 61.3 °F /  16.3 °C 30 in /  1015.8 hPa SW 4 mph /  6.4 km/h 4 mph /  6.4 km/h 86 % 0 in /  0.0 mm
05:32 66 °F /  18.9 °C 61.7 °F /  16.5 °C 30 in /  1015.8 hPa SW 2 mph /  3.2 km/h 10 mph /  16.1 km/h 86 % 0.07 in /  1.8 mm
05:37 65.8 °F /  18.8 °C 61.9 °F /  16.6 °C 30 in /  1015.8 hPa SSW 2 mph /  3.2 km/h 10 mph /  16.1 km/h 87 % 0.1 in /  2.5 mm
05:42 65.5 °F /  18.6 °C 61.9 °F /  16.6 °C 30 in /  1015.5 hPa SSW 1 mph /  1.6 km/h 10 mph /  16.1 km/h 88 % 0.1 in /  2.5 mm
05:47 65.1 °F /  18.4 °C 61.9 °F /  16.6 °C 30 in /  1015.8 hPa South 1 mph /  1.6 km/h 5 mph /  8.0 km/h 89 % 0.1 in /  2.5 mm
05:52 65.1 °F /  18.4 °C 61.9 °F /  16.6 °C 30 in /  1015.8 hPa Calm   3 mph /  4.8 km/h 89 % 0.1 in /  2.5 mm
06:02 64.9 °F /  18.3 °C 61.9 °F /  16.6 °C 30 in /  1015.8 hPa Calm   3 mph /  4.8 km/h 90 % 0.1 in /  2.5 mm
06:12 65.1 °F /  18.4 °C 61.9 °F /  16.6 °C 30 in /  1015.8 hPa SSW 1 mph /  1.6 km/h 2 mph /  3.2 km/h 89 % 0.1 in /  2.5 mm
06:17 64.9 °F /  18.3 °C 61.7 °F /  16.5 °C 30 in /  1015.8 hPa SW 3 mph /  4.8 km/h 3 mph /  4.8 km/h 89 % 0.1 in /  2.5 mm
06:22 65.1 °F /  18.4 °C 62.1 °F /  16.7 °C 30 in /  1016.1 hPa SW 2 mph /  3.2 km/h 3 mph /  4.8 km/h 90 % 0.1 in /  2.5 mm
06:27 64.9 °F /  18.3 °C 61.9 °F /  16.6 °C 30 in /  1015.8 hPa Calm   3 mph /  4.8 km/h 90 % 0.1 in /  2.5 mm
06:32 64.9 °F /  18.3 °C 61.9 °F /  16.6 °C 30 in /  1015.8 hPa Calm   4 mph /  6.4 km/h 90 % 0 in /  0.0 mm
06:42 64.9 °F /  18.3 °C 61.9 °F /  16.6 °C 30 in /  1015.8 hPa Calm   3 mph /  4.8 km/h 90 % 0 in /  0.0 mm
06:47 64.6 °F /  18.1 °C 61.9 °F /  16.6 °C 30 in /  1015.8 hPa Calm   3 mph /  4.8 km/h 91 % 0 in /  0.0 mm
06:52 64.6 °F /  18.1 °C 61.9 °F /  16.6 °C 30 in /  1016.1 hPa Calm   3 mph /  4.8 km/h 91 % 0 in /  0.0 mm
06:57 64.6 °F /  18.1 °C 61.9 °F /  16.6 °C 30 in /  1016.1 hPa Calm   3 mph /  4.8 km/h 91 % 0 in /  0.0 mm
07:02 64.6 °F /  18.1 °C 61.9 °F /  16.6 °C 30 in /  1016.1 hPa Calm   1 mph /  1.6 km/h 91 % 0 in /  0.0 mm
07:07 64.6 °F /  18.1 °C 61.5 °F /  16.4 °C 30 in /  1016.1 hPa Calm   1 mph /  1.6 km/h 90 % 0 in /  0.0 mm
07:12 64.6 °F /  18.1 °C 61.5 °F /  16.4 °C 30 in /  1016.1 hPa Calm   1 mph /  1.6 km/h 90 % 0 in /  0.0 mm
07:17 64.6 °F /  18.1 °C 61.5 °F /  16.4 °C 30 in /  1016.1 hPa Calm   1 mph /  1.6 km/h 90 % 0 in /  0.0 mm
07:27 64.8 °F /  18.2 °C 61.7 °F /  16.5 °C 30 in /  1016.5 hPa Calm   1 mph /  1.6 km/h 90 % 0 in /  0.0 mm
07:32 64.9 °F /  18.3 °C 61.9 °F /  16.6 °C 30 in /  1016.5 hPa Calm     90 % 0 in /  0.0 mm
07:37 64.8 °F /  18.2 °C 61.7 °F /  16.5 °C 30 in /  1016.5 hPa Calm     90 % 0 in /  0.0 mm
07:42 64.8 °F /  18.2 °C 62.1 °F /  16.7 °C 30 in /  1016.5 hPa Calm     91 % 0 in /  0.0 mm
07:47 64.4 °F /  18.0 °C 61.7 °F /  16.5 °C 30 in /  1016.8 hPa Calm   1 mph /  1.6 km/h 91 % 0 in /  0.0 mm
07:57 64.2 °F /  17.9 °C 61.5 °F /  16.4 °C 30 in /  1016.8 hPa WSW 1 mph /  1.6 km/h 1 mph /  1.6 km/h 91 % 0 in /  0.0 mm
08:02 64.4 °F /  18.0 °C 61.7 °F /  16.5 °C 30 in /  1016.8 hPa SSW 1 mph /  1.6 km/h 1 mph /  1.6 km/h 91 % 0 in /  0.0 mm
08:07 64.8 °F /  18.2 °C 62.1 °F /  16.7 °C 30 in /  1016.8 hPa Calm   2 mph /  3.2 km/h 91 % 0 in /  0.0 mm
08:12 64.9 °F /  18.3 °C 61.9 °F /  16.6 °C 30 in /  1016.8 hPa Calm   2 mph /  3.2 km/h 90 % 0 in /  0.0 mm
08:17 65.1 °F /  18.4 °C 62.1 °F /  16.7 °C 30 in /  1016.8 hPa SSW 1 mph /  1.6 km/h 3 mph /  4.8 km/h 90 % 0 in /  0.0 mm
08:22 65.5 °F /  18.6 °C 62.4 °F /  16.9 °C 30 in /  1016.8 hPa SW 1 mph /  1.6 km/h 3 mph /  4.8 km/h 90 % 0 in /  0.0 mm
08:32 66 °F /  18.9 °C 62.4 °F /  16.9 °C 30 in /  1016.8 hPa SW 4 mph /  6.4 km/h 4 mph /  6.4 km/h 88 % 0 in /  0.0 mm
08:37 66.4 °F /  19.1 °C 62.4 °F /  16.9 °C 30 in /  1017.2 hPa SSW 3 mph /  4.8 km/h 5 mph /  8.0 km/h 87 % 0 in /  0.0 mm
08:42 66.4 °F /  19.1 °C 62.4 °F /  16.9 °C 30 in /  1017.2 hPa SW 5 mph /  8.0 km/h 6 mph /  9.7 km/h 87 % 0 in /  0.0 mm
08:52 66.6 °F /  19.2 °C 63 °F /  17.2 °C 30 in /  1017.2 hPa SSW 3 mph /  4.8 km/h 6 mph /  9.7 km/h 88 % 0 in /  0.0 mm
08:57 66.7 °F /  19.3 °C 62.8 °F /  17.1 °C 30 in /  1017.2 hPa SSW 3 mph /  4.8 km/h 6 mph /  9.7 km/h 87 % 0 in /  0.0 mm
09:07 67.8 °F /  19.9 °C 63.5 °F /  17.5 °C 30.1 in /  1017.5 hPa SW 4 mph /  6.4 km/h 6 mph /  9.7 km/h 86 % 0 in /  0.0 mm
09:17 69.4 °F /  20.8 °C 64.8 °F /  18.2 °C 30 in /  1017.2 hPa SW 3 mph /  4.8 km/h 7 mph /  11.3 km/h 85 % 0 in /  0.0 mm
09:22 70.5 °F /  21.4 °C 64.4 °F /  18.0 °C 30 in /  1017.2 hPa SSW 8 mph /  12.9 km/h 8 mph /  12.9 km/h 81 % 0 in /  0.0 mm
09:27 71.4 °F /  21.9 °C 64.2 °F /  17.9 °C 30 in /  1017.2 hPa SSW 7 mph /  11.3 km/h 11 mph /  17.7 km/h 78 % 0 in /  0.0 mm
09:32 71.8 °F /  22.1 °C 64.2 °F /  17.9 °C 30 in /  1017.2 hPa WSW 5 mph /  8.0 km/h 12 mph /  19.3 km/h 77 % 0 in /  0.0 mm
09:37 71.8 °F /  22.1 °C 64.2 °F /  17.9 °C 30 in /  1017.2 hPa SW 7 mph /  11.3 km/h 12 mph /  19.3 km/h 77 % 0 in /  0.0 mm
09:42 71.8 °F /  22.1 °C 64.2 °F /  17.9 °C 30.1 in /  1017.5 hPa SW 4 mph /  6.4 km/h 11 mph /  17.7 km/h 77 % 0 in /  0.0 mm
09:47 71.8 °F /  22.1 °C 63.5 °F /  17.5 °C 30 in /  1017.2 hPa SW 5 mph /  8.0 km/h 10 mph /  16.1 km/h 75 % 0 in /  0.0 mm
09:52 72 °F /  22.2 °C 63.7 °F /  17.6 °C 30 in /  1017.2 hPa WSW 9 mph /  14.5 km/h 10 mph /  16.1 km/h 75 % 0 in /  0.0 mm
10:02 72.7 °F /  22.6 °C 63.1 °F /  17.3 °C 30 in /  1017.2 hPa SW 7 mph /  11.3 km/h 16 mph /  25.7 km/h 72 % 0 in /  0.0 mm
10:12 72.7 °F /  22.6 °C 62.8 °F /  17.1 °C 30.1 in /  1017.5 hPa WSW 4 mph /  6.4 km/h 17 mph /  27.4 km/h 71 % 0 in /  0.0 mm
10:17 72.7 °F /  22.6 °C 62.8 °F /  17.1 °C 30.1 in /  1017.5 hPa West 5 mph /  8.0 km/h 17 mph /  27.4 km/h 71 % 0 in /  0.0 mm
10:22 72.7 °F /  22.6 °C 63.1 °F /  17.3 °C 30.1 in /  1017.8 hPa SSW 3 mph /  4.8 km/h 15 mph /  24.1 km/h 72 % 0 in /  0.0 mm
10:32 73 °F /  22.8 °C 63.5 °F /  17.5 °C 30.1 in /  1017.8 hPa SW 5 mph /  8.0 km/h 11 mph /  17.7 km/h 72 % 0 in /  0.0 mm
10:37 73.2 °F /  22.9 °C 63.7 °F /  17.6 °C 30.1 in /  1017.8 hPa SW 6 mph /  9.7 km/h 11 mph /  17.7 km/h 72 % 0.01 in /  0.3 mm
10:42 73.4 °F /  23.0 °C 63.9 °F /  17.7 °C 30.1 in /  1017.8 hPa SSW 5 mph /  8.0 km/h 12 mph /  19.3 km/h 72 % 0.01 in /  0.3 mm
10:47 73.8 °F /  23.2 °C 63 °F /  17.2 °C 30.1 in /  1017.8 hPa West 6 mph /  9.7 km/h 15 mph /  24.1 km/h 69 % 0.01 in /  0.3 mm
10:52 74.3 °F /  23.5 °C 63.5 °F /  17.5 °C 30.1 in /  1017.8 hPa SW 6 mph /  9.7 km/h 15 mph /  24.1 km/h 69 % 0.01 in /  0.3 mm
10:57 74.8 °F /  23.8 °C 64 °F /  17.8 °C 30.1 in /  1017.8 hPa WSW 8 mph /  12.9 km/h 15 mph /  24.1 km/h 69 % 0.01 in /  0.3 mm
11:02 75 °F /  23.9 °C 64.2 °F /  17.9 °C 30.1 in /  1017.8 hPa West 3 mph /  4.8 km/h 13 mph /  20.9 km/h 69 % 0.01 in /  0.3 mm
11:12 75.6 °F /  24.2 °C 63.3 °F /  17.4 °C 30.1 in /  1017.8 hPa SSW 5 mph /  8.0 km/h 12 mph /  19.3 km/h 66 % 0.01 in /  0.3 mm
11:17 75.9 °F /  24.4 °C 64.6 °F /  18.1 °C 30.1 in /  1017.8 hPa West 1 mph /  1.6 km/h 11 mph /  17.7 km/h 68 % 0.01 in /  0.3 mm
11:22 76.3 °F /  24.6 °C 63.7 °F /  17.6 °C 30.1 in /  1017.8 hPa SW 8 mph /  12.9 km/h 11 mph /  17.7 km/h 65 % 0.01 in /  0.3 mm
11:32 76.8 °F /  24.9 °C 62.8 °F /  17.1 °C 30.1 in /  1017.8 hPa WSW 8 mph /  12.9 km/h 14 mph /  22.5 km/h 62 % 0 in /  0.0 mm
11:42 76.6 °F /  24.8 °C 62.6 °F /  17.0 °C 30.1 in /  1017.8 hPa West 5 mph /  8.0 km/h 15 mph /  24.1 km/h 62 % 0 in /  0.0 mm
11:47 76.5 °F /  24.7 °C 63.3 °F /  17.4 °C 30.1 in /  1018.2 hPa SW 6 mph /  9.7 km/h 13 mph /  20.9 km/h 64 % 0 in /  0.0 mm
11:52 76.5 °F /  24.7 °C 63 °F /  17.2 °C 30.1 in /  1018.2 hPa WSW 7 mph /  11.3 km/h 11 mph /  17.7 km/h 63 % 0 in /  0.0 mm
11:57 76.1 °F /  24.5 °C 62.6 °F /  17.0 °C 30.1 in /  1018.5 hPa WSW 10 mph /  16.1 km/h 11 mph /  17.7 km/h 63 % 0 in /  0.0 mm
12:02 75.7 °F /  24.3 °C 62.2 °F /  16.8 °C 30.1 in /  1018.8 hPa West 6 mph /  9.7 km/h 10 mph /  16.1 km/h 63 % 0 in /  0.0 mm
12:07 75.4 °F /  24.1 °C 61.9 °F /  16.6 °C 30.1 in /  1019.2 hPa SW 7 mph /  11.3 km/h 15 mph /  24.1 km/h 63 % 0 in /  0.0 mm
12:12 75.2 °F /  24.0 °C 62.2 °F /  16.8 °C 30.1 in /  1019.5 hPa West 15 mph /  24.1 km/h 15 mph /  24.1 km/h 64 % 0 in /  0.0 mm
12:17 74.8 °F /  23.8 °C 61.3 °F /  16.3 °C 30.1 in /  1019.9 hPa WSW 10 mph /  16.1 km/h 21 mph /  33.8 km/h 63 % 0 in /  0.0 mm
12:22 74.5 °F /  23.6 °C 61 °F /  16.1 °C 30.1 in /  1019.9 hPa West 13 mph /  20.9 km/h 23 mph /  37.0 km/h 63 % 0 in /  0.0 mm
12:27 73.8 °F /  23.2 °C 60.4 °F /  15.8 °C 30.1 in /  1019.9 hPa WNW 12 mph /  19.3 km/h 23 mph /  37.0 km/h 63 % 0 in /  0.0 mm
12:32 72.9 °F /  22.7 °C 59.9 °F /  15.5 °C 30.1 in /  1019.9 hPa West 21 mph /  33.8 km/h 23 mph /  37.0 km/h 64 % 0 in /  0.0 mm
12:42 69.4 °F /  20.8 °C 61.2 °F /  16.2 °C 30.1 in /  1019.9 hPa West 7 mph /  11.3 km/h 28 mph /  45.1 km/h 75 % 0 in /  0.0 mm
12:47 68.2 °F /  20.1 °C 61.3 °F /  16.3 °C 30.1 in /  1019.5 hPa West 3 mph /  4.8 km/h 28 mph /  45.1 km/h 79 % 0 in /  0.0 mm
12:52 67.5 °F /  19.7 °C 61.2 °F /  16.2 °C 30.1 in /  1019.5 hPa WNW 7 mph /  11.3 km/h 22 mph /  35.4 km/h 80 % 0.02 in /  0.5 mm
12:57 67.1 °F /  19.5 °C 61.2 °F /  16.2 °C 30.1 in /  1019.5 hPa WSW 4 mph /  6.4 km/h 22 mph /  35.4 km/h 81 % 0.02 in /  0.5 mm
13:02 66.6 °F /  19.2 °C 61 °F /  16.1 °C 30.1 in /  1019.5 hPa SSW 1 mph /  1.6 km/h 9 mph /  14.5 km/h 82 % 0.02 in /  0.5 mm
13:12 66 °F /  18.9 °C 61.7 °F /  16.5 °C 30.1 in /  1019.5 hPa Calm   7 mph /  11.3 km/h 86 % 0.03 in /  0.8 mm
13:17 65.8 °F /  18.8 °C 61.9 °F /  16.6 °C 30.1 in /  1019.2 hPa SSE 1 mph /  1.6 km/h 7 mph /  11.3 km/h 87 % 0.04 in /  1.0 mm
13:22 65.7 °F /  18.7 °C 62.1 °F /  16.7 °C 30.1 in /  1019.2 hPa Calm   7 mph /  11.3 km/h 88 % 0.04 in /  1.0 mm
13:32 65.5 °F /  18.6 °C 61.9 °F /  16.6 °C 30.1 in /  1018.8 hPa West 2 mph /  3.2 km/h 2 mph /  3.2 km/h 88 % 0.05 in /  1.3 mm
13:42 65.8 °F /  18.8 °C 62.8 °F /  17.1 °C 30.1 in /  1018.5 hPa SE 2 mph /  3.2 km/h 5 mph /  8.0 km/h 90 % 0.05 in /  1.3 mm
13:52 66.6 °F /  19.2 °C 63.9 °F /  17.7 °C 30.1 in /  1017.8 hPa Calm   4 mph /  6.4 km/h 91 % 0.02 in /  0.5 mm
13:57 66.9 °F /  19.4 °C 64.2 °F /  17.9 °C 30.1 in /  1018.2 hPa Calm   4 mph /  6.4 km/h 91 % 0.02 in /  0.5 mm
14:02 66.9 °F /  19.4 °C 63.5 °F /  17.5 °C 30.1 in /  1018.2 hPa SSW 1 mph /  1.6 km/h 3 mph /  4.8 km/h 89 % 0.02 in /  0.5 mm
14:07 66.9 °F /  19.4 °C 63.3 °F /  17.4 °C 30.1 in /  1018.5 hPa West 1 mph /  1.6 km/h 3 mph /  4.8 km/h 88 % 0.02 in /  0.5 mm
14:12 67.3 °F /  19.6 °C 63.9 °F /  17.7 °C 30.1 in /  1018.2 hPa Calm   3 mph /  4.8 km/h 89 % 0.01 in /  0.3 mm
14:17 67.5 °F /  19.7 °C 63.9 °F /  17.7 °C 30.1 in /  1018.5 hPa Calm   3 mph /  4.8 km/h 88 % 0.01 in /  0.3 mm
14:22 67.6 °F /  19.8 °C 64 °F /  17.8 °C 30.1 in /  1018.8 hPa Calm   3 mph /  4.8 km/h 88 % 0.01 in /  0.3 mm
14:27 67.8 °F /  19.9 °C 64.2 °F /  17.9 °C 30.1 in /  1018.8 hPa SW 1 mph /  1.6 km/h 3 mph /  4.8 km/h 88 % 0 in /  0.0 mm
14:32 68.2 °F /  20.1 °C 64.4 °F /  18.0 °C 30.1 in /  1018.8 hPa SSW 1 mph /  1.6 km/h 4 mph /  6.4 km/h 88 % 0 in /  0.0 mm
14:42 68.5 °F /  20.3 °C 64.2 °F /  17.9 °C 30.1 in /  1019.5 hPa SW 3 mph /  4.8 km/h 6 mph /  9.7 km/h 86 % 0 in /  0.0 mm
14:47 68.5 °F /  20.3 °C 63.9 °F /  17.7 °C 30.1 in /  1019.5 hPa WSW 5 mph /  8.0 km/h 7 mph /  11.3 km/h 85 % 0 in /  0.0 mm
14:52 68.5 °F /  20.3 °C 64.2 °F /  17.9 °C 30.1 in /  1019.9 hPa West 5 mph /  8.0 km/h 8 mph /  12.9 km/h 86 % 0 in /  0.0 mm
14:57 68.5 °F /  20.3 °C 64.6 °F /  18.1 °C 30.1 in /  1019.9 hPa SW 8 mph /  12.9 km/h 12 mph /  19.3 km/h 87 % 0 in /  0.0 mm
15:02 68.5 °F /  20.3 °C 64.2 °F /  17.9 °C 30.1 in /  1019.9 hPa WSW 6 mph /  9.7 km/h 12 mph /  19.3 km/h 86 % 0 in /  0.0 mm
15:07 68.5 °F /  20.3 °C 64.6 °F /  18.1 °C 30.1 in /  1019.9 hPa West 2 mph /  3.2 km/h 12 mph /  19.3 km/h 87 % 0 in /  0.0 mm
15:12 68.7 °F /  20.4 °C 64.8 °F /  18.2 °C 30.1 in /  1020.2 hPa WSW 6 mph /  9.7 km/h 12 mph /  19.3 km/h 87 % 0 in /  0.0 mm
15:17 68.7 °F /  20.4 °C 64.8 °F /  18.2 °C 30.1 in /  1020.2 hPa SW 3 mph /  4.8 km/h 12 mph /  19.3 km/h 87 % 0 in /  0.0 mm
15:22 69.1 °F /  20.6 °C 65.1 °F /  18.4 °C 30.1 in /  1020.2 hPa SW 10 mph /  16.1 km/h 12 mph /  19.3 km/h 87 % 0 in /  0.0 mm
15:27 69.3 °F /  20.7 °C 65.3 °F /  18.5 °C 30.1 in /  1020.2 hPa WSW 3 mph /  4.8 km/h 11 mph /  17.7 km/h 87 % 0 in /  0.0 mm
15:32 69.3 °F /  20.7 °C 65.3 °F /  18.5 °C 30.1 in /  1020.2 hPa WSW 3 mph /  4.8 km/h 10 mph /  16.1 km/h 87 % 0 in /  0.0 mm
15:37 69.4 °F /  20.8 °C 65.1 °F /  18.4 °C 30.1 in /  1020.2 hPa WSW 7 mph /  11.3 km/h 10 mph /  16.1 km/h 86 % 0 in /  0.0 mm
15:42 69.6 °F /  20.9 °C 65.3 °F /  18.5 °C 30.1 in /  1019.9 hPa West 5 mph /  8.0 km/h 9 mph /  14.5 km/h 86 % 0 in /  0.0 mm
15:47 70.2 °F /  21.2 °C 65.5 °F /  18.6 °C 30.1 in /  1019.9 hPa SSW 5 mph /  8.0 km/h 9 mph /  14.5 km/h 85 % 0 in /  0.0 mm
15:52 70.5 °F /  21.4 °C 65.8 °F /  18.8 °C 30.1 in /  1019.9 hPa WSW 2 mph /  3.2 km/h 10 mph /  16.1 km/h 85 % 0 in /  0.0 mm
15:57 71.2 °F /  21.8 °C 66.6 °F /  19.2 °C 30.1 in /  1020.2 hPa SW 9 mph /  14.5 km/h 12 mph /  19.3 km/h 85 % 0 in /  0.0 mm
16:02 71.6 °F /  22.0 °C 66.6 °F /  19.2 °C 30.1 in /  1019.9 hPa West 5 mph /  8.0 km/h 12 mph /  19.3 km/h 84 % 0 in /  0.0 mm
16:12 72.1 °F /  22.3 °C 65.3 °F /  18.5 °C 30.1 in /  1019.9 hPa SW 7 mph /  11.3 km/h 13 mph /  20.9 km/h 79 % 0 in /  0.0 mm
16:17 72.3 °F /  22.4 °C 65.8 °F /  18.8 °C 30.1 in /  1019.9 hPa WSW 4 mph /  6.4 km/h 13 mph /  20.9 km/h 80 % 0 in /  0.0 mm
16:22 72.3 °F /  22.4 °C 65.8 °F /  18.8 °C 30.1 in /  1019.9 hPa WSW 7 mph /  11.3 km/h 13 mph /  20.9 km/h 80 % 0 in /  0.0 mm
16:27 72.3 °F /  22.4 °C 65.5 °F /  18.6 °C 30.1 in /  1019.9 hPa SSW 5 mph /  8.0 km/h 12 mph /  19.3 km/h 79 % 0 in /  0.0 mm
16:32 72.3 °F /  22.4 °C 65.1 °F /  18.4 °C 30.1 in /  1019.9 hPa SSW 4 mph /  6.4 km/h 12 mph /  19.3 km/h 78 % 0 in /  0.0 mm
16:42 72.3 °F /  22.4 °C 64.4 °F /  18.0 °C 30.1 in /  1019.9 hPa SW 7 mph /  11.3 km/h 12 mph /  19.3 km/h 76 % 0 in /  0.0 mm
16:47 72.5 °F /  22.5 °C 64.6 °F /  18.1 °C 30.1 in /  1019.5 hPa SW 5 mph /  8.0 km/h 12 mph /  19.3 km/h 76 % 0 in /  0.0 mm
16:52 72.5 °F /  22.5 °C 64.9 °F /  18.3 °C 30.1 in /  1019.5 hPa South 5 mph /  8.0 km/h 12 mph /  19.3 km/h 77 % 0 in /  0.0 mm
16:57 72.7 °F /  22.6 °C 65.1 °F /  18.4 °C 30.1 in /  1019.5 hPa SSW 11 mph /  17.7 km/h 11 mph /  17.7 km/h 77 % 0 in /  0.0 mm
17:02 72.7 °F /  22.6 °C 64.8 °F /  18.2 °C 30.1 in /  1019.5 hPa SW 5 mph /  8.0 km/h 11 mph /  17.7 km/h 76 % 0 in /  0.0 mm
17:12 72.5 °F /  22.5 °C 64.9 °F /  18.3 °C 30.1 in /  1019.9 hPa WSW 8 mph /  12.9 km/h 12 mph /  19.3 km/h 77 % 0 in /  0.0 mm
17:17 72.3 °F /  22.4 °C 64.4 °F /  18.0 °C 30.1 in /  1019.9 hPa SW 8 mph /  12.9 km/h 12 mph /  19.3 km/h 76 % 0 in /  0.0 mm
17:22 72.3 °F /  22.4 °C 64.8 °F /  18.2 °C 30.1 in /  1019.9 hPa SSW 4 mph /  6.4 km/h 12 mph /  19.3 km/h 77 % 0 in /  0.0 mm
17:27 72.3 °F /  22.4 °C 65.1 °F /  18.4 °C 30.1 in /  1019.9 hPa SSW 3 mph /  4.8 km/h 12 mph /  19.3 km/h 78 % 0 in /  0.0 mm
17:32 72.3 °F /  22.4 °C 65.1 °F /  18.4 °C 30.1 in /  1019.9 hPa SW 9 mph /  14.5 km/h 12 mph /  19.3 km/h 78 % 0 in /  0.0 mm
17:37 72.3 °F /  22.4 °C 65.1 °F /  18.4 °C 30.1 in /  1019.9 hPa WSW 8 mph /  12.9 km/h 9 mph /  14.5 km/h 78 % 0 in /  0.0 mm
17:42 72.1 °F /  22.3 °C 64.9 °F /  18.3 °C 30.1 in /  1019.9 hPa SW 4 mph /  6.4 km/h 9 mph /  14.5 km/h 78 % 0 in /  0.0 mm
17:47 72.1 °F /  22.3 °C 64.9 °F /  18.3 °C 30.1 in /  1019.9 hPa SSW 3 mph /  4.8 km/h 9 mph /  14.5 km/h 78 % 0 in /  0.0 mm
17:52 72 °F /  22.2 °C 65.1 °F /  18.4 °C 30.1 in /  1019.9 hPa WSW 3 mph /  4.8 km/h 9 mph /  14.5 km/h 79 % 0 in /  0.0 mm
17:57 72 °F /  22.2 °C 65.1 °F /  18.4 °C 30.1 in /  1019.9 hPa SW 4 mph /  6.4 km/h 9 mph /  14.5 km/h 79 % 0 in /  0.0 mm
18:02 72 °F /  22.2 °C 65.5 °F /  18.6 °C 30.1 in /  1019.9 hPa SSW 5 mph /  8.0 km/h 9 mph /  14.5 km/h 80 % 0 in /  0.0 mm
18:12 71.8 °F /  22.1 °C 65.3 °F /  18.5 °C 30.1 in /  1019.9 hPa SW 5 mph /  8.0 km/h 8 mph /  12.9 km/h 80 % 0 in /  0.0 mm
18:17 72 °F /  22.2 °C 65.8 °F /  18.8 °C 30.1 in /  1019.9 hPa WSW 3 mph /  4.8 km/h 8 mph /  12.9 km/h 81 % 0 in /  0.0 mm
18:22 72 °F /  22.2 °C 65.5 °F /  18.6 °C 30.1 in /  1019.9 hPa WSW 2 mph /  3.2 km/h 8 mph /  12.9 km/h 80 % 0 in /  0.0 mm
18:32 72 °F /  22.2 °C 65.5 °F /  18.6 °C 30.1 in /  1019.5 hPa SSW 2 mph /  3.2 km/h 7 mph /  11.3 km/h 80 % 0 in /  0.0 mm
18:42 71.8 °F /  22.1 °C 66 °F /  18.9 °C 30.1 in /  1019.5 hPa SW 7 mph /  11.3 km/h 7 mph /  11.3 km/h 82 % 0 in /  0.0 mm
18:52 71.4 °F /  21.9 °C 66 °F /  18.9 °C 30.1 in /  1019.5 hPa SW 3 mph /  4.8 km/h 9 mph /  14.5 km/h 83 % 0 in /  0.0 mm
19:02 71.4 °F /  21.9 °C 66 °F /  18.9 °C 30.1 in /  1019.2 hPa SSE 2 mph /  3.2 km/h 8 mph /  12.9 km/h 83 % 0 in /  0.0 mm
19:12 71.2 °F /  21.8 °C 65.8 °F /  18.8 °C 30.1 in /  1018.8 hPa SW 2 mph /  3.2 km/h 5 mph /  8.0 km/h 83 % 0 in /  0.0 mm
19:17 71.2 °F /  21.8 °C 65.8 °F /  18.8 °C 30.1 in /  1018.8 hPa SW 1 mph /  1.6 km/h 5 mph /  8.0 km/h 83 % 0 in /  0.0 mm
19:22 71.2 °F /  21.8 °C 65.5 °F /  18.6 °C 30.1 in /  1018.8 hPa SW 4 mph /  6.4 km/h 5 mph /  8.0 km/h 82 % 0 in /  0.0 mm
19:32 71.8 °F /  22.1 °C 65.7 °F /  18.7 °C 30.1 in /  1018.8 hPa SW 3 mph /  4.8 km/h 5 mph /  8.0 km/h 81 % 0 in /  0.0 mm
19:37 72.1 °F /  22.3 °C 66 °F /  18.9 °C 30.1 in /  1019.2 hPa SW 5 mph /  8.0 km/h 7 mph /  11.3 km/h 81 % 0 in /  0.0 mm
19:42 72.1 °F /  22.3 °C 66 °F /  18.9 °C 30.1 in /  1019.2 hPa SW 3 mph /  4.8 km/h 7 mph /  11.3 km/h 81 % 0 in /  0.0 mm
19:47 72.1 °F /  22.3 °C 66 °F /  18.9 °C 30.1 in /  1019.5 hPa SW 7 mph /  11.3 km/h 7 mph /  11.3 km/h 81 % 0 in /  0.0 mm
19:52 72.1 °F /  22.3 °C 65.7 °F /  18.7 °C 30.1 in /  1019.5 hPa SW 3 mph /  4.8 km/h 10 mph /  16.1 km/h 80 % 0 in /  0.0 mm
19:57 72 °F /  22.2 °C 65.5 °F /  18.6 °C 30.1 in /  1019.5 hPa South 3 mph /  4.8 km/h 10 mph /  16.1 km/h 80 % 0 in /  0.0 mm
20:02 71.8 °F /  22.1 °C 65.7 °F /  18.7 °C 30.1 in /  1019.5 hPa SW 1 mph /  1.6 km/h 10 mph /  16.1 km/h 81 % 0 in /  0.0 mm
20:12 71.4 °F /  21.9 °C 65.7 °F /  18.7 °C 30.1 in /  1019.5 hPa SW 3 mph /  4.8 km/h 7 mph /  11.3 km/h 82 % 0 in /  0.0 mm
20:17 71.4 °F /  21.9 °C 65.7 °F /  18.7 °C 30.1 in /  1019.5 hPa SW 5 mph /  8.0 km/h 7 mph /  11.3 km/h 82 % 0 in /  0.0 mm
20:27 71.2 °F /  21.8 °C 65.5 °F /  18.6 °C 30.1 in /  1019.9 hPa WSW 2 mph /  3.2 km/h 7 mph /  11.3 km/h 82 % 0 in /  0.0 mm
20:32 71.2 °F /  21.8 °C 65.5 °F /  18.6 °C 30.1 in /  1019.9 hPa Calm   7 mph /  11.3 km/h 82 % 0 in /  0.0 mm
20:37 71.2 °F /  21.8 °C 65.5 °F /  18.6 °C 30.1 in /  1019.9 hPa SE 1 mph /  1.6 km/h 7 mph /  11.3 km/h 82 % 0 in /  0.0 mm
20:42 71.1 °F /  21.7 °C 65.3 °F /  18.5 °C 30.1 in /  1019.9 hPa WSW 2 mph /  3.2 km/h 3 mph /  4.8 km/h 82 % 0 in /  0.0 mm
20:47 71.1 °F /  21.7 °C 65.3 °F /  18.5 °C 30.1 in /  1019.9 hPa Calm   3 mph /  4.8 km/h 82 % 0 in /  0.0 mm
20:57 70.7 °F /  21.5 °C 65.3 °F /  18.5 °C 30.1 in /  1019.9 hPa Calm   3 mph /  4.8 km/h 83 % 0 in /  0.0 mm
21:02 70.5 °F /  21.4 °C 65.5 °F /  18.6 °C 30.1 in /  1019.9 hPa Calm   2 mph /  3.2 km/h 84 % 0 in /  0.0 mm
21:07 70.2 °F /  21.2 °C 65.5 °F /  18.6 °C 30.1 in /  1019.9 hPa SE 1 mph /  1.6 km/h 2 mph /  3.2 km/h 85 % 0 in /  0.0 mm
21:12 70 °F /  21.1 °C 65.3 °F /  18.5 °C 30.1 in /  1019.9 hPa Calm   2 mph /  3.2 km/h 85 % 0 in /  0.0 mm
21:17 69.6 °F /  20.9 °C 65.3 °F /  18.5 °C 30.1 in /  1019.9 hPa Calm   2 mph /  3.2 km/h 86 % 0 in /  0.0 mm
21:22 69.4 °F /  20.8 °C 65.1 °F /  18.4 °C 30.1 in /  1019.9 hPa Calm   2 mph /  3.2 km/h 86 % 0 in /  0.0 mm
21:27 69.3 °F /  20.7 °C 64.9 °F /  18.3 °C 30.1 in /  1019.9 hPa Calm   2 mph /  3.2 km/h 86 % 0 in /  0.0 mm
21:32 68.9 °F /  20.5 °C 64.6 °F /  18.1 °C 30.1 in /  1019.9 hPa Calm   2 mph /  3.2 km/h 86 % 0 in /  0.0 mm
21:37 68.7 °F /  20.4 °C 64.8 °F /  18.2 °C 30.1 in /  1019.9 hPa Calm   1 mph /  1.6 km/h 87 % 0 in /  0.0 mm
21:47 68.4 °F /  20.2 °C 64.6 °F /  18.1 °C 30.1 in /  1020.2 hPa Calm   1 mph /  1.6 km/h 88 % 0 in /  0.0 mm
21:52 68.2 °F /  20.1 °C 64.8 °F /  18.2 °C 30.1 in /  1020.5 hPa Calm   1 mph /  1.6 km/h 89 % 0 in /  0.0 mm
21:57 68 °F /  20.0 °C 64.6 °F /  18.1 °C 30.1 in /  1020.5 hPa Calm   1 mph /  1.6 km/h 89 % 0 in /  0.0 mm
22:02 67.8 °F /  19.9 °C 64.8 °F /  18.2 °C 30.1 in /  1020.5 hPa Calm     90 % 0 in /  0.0 mm
22:07 67.8 °F /  19.9 °C 64.8 °F /  18.2 °C 30.2 in /  1020.9 hPa Calm     90 % 0 in /  0.0 mm
22:12 67.8 °F /  19.9 °C 64.8 °F /  18.2 °C 30.2 in /  1020.9 hPa Calm     90 % 0 in /  0.0 mm
22:17 68 °F /  20.0 °C 64.9 °F /  18.3 °C 30.2 in /  1021.2 hPa Calm     90 % 0 in /  0.0 mm
22:22 68.2 °F /  20.1 °C 65.1 °F /  18.4 °C 30.2 in /  1020.9 hPa Calm     90 % 0 in /  0.0 mm
22:32 67.6 °F /  19.8 °C 64.6 °F /  18.1 °C 30.2 in /  1020.9 hPa Calm     90 % 0 in /  0.0 mm
22:37 67.5 °F /  19.7 °C 64.4 °F /  18.0 °C 30.2 in /  1020.9 hPa Calm     90 % 0 in /  0.0 mm
22:42 67.5 °F /  19.7 °C 64.8 °F /  18.2 °C 30.2 in /  1020.9 hPa Calm     91 % 0 in /  0.0 mm
22:52 67.6 °F /  19.8 °C 65.3 °F /  18.5 °C 30.2 in /  1020.9 hPa SW 2 mph /  3.2 km/h 3 mph /  4.8 km/h 92 % 0 in /  0.0 mm
22:57 68 °F /  20.0 °C 65.3 °F /  18.5 °C 30.2 in /  1021.2 hPa SSW 2 mph /  3.2 km/h 3 mph /  4.8 km/h 91 % 0 in /  0.0 mm
23:02 68.2 °F /  20.1 °C 65.5 °F /  18.6 °C 30.2 in /  1020.9 hPa SSW 3 mph /  4.8 km/h 3 mph /  4.8 km/h 91 % 0 in /  0.0 mm
23:12 68.2 °F /  20.1 °C 65.1 °F /  18.4 °C 30.2 in /  1020.9 hPa SW 3 mph /  4.8 km/h 4 mph /  6.4 km/h 90 % 0 in /  0.0 mm
23:17 68.4 °F /  20.2 °C 65.3 °F /  18.5 °C 30.2 in /  1020.9 hPa SW 2 mph /  3.2 km/h 4 mph /  6.4 km/h 90 % 0 in /  0.0 mm
23:22 68.4 °F /  20.2 °C 65.3 °F /  18.5 °C 30.2 in /  1020.9 hPa SW 3 mph /  4.8 km/h 5 mph /  8.0 km/h 90 % 0 in /  0.0 mm
23:32 68.4 °F /  20.2 °C 65.3 °F /  18.5 °C 30.2 in /  1020.9 hPa WSW 4 mph /  6.4 km/h 6 mph /  9.7 km/h 90 % 0 in /  0.0 mm
23:37 68.5 °F /  20.3 °C 65.5 °F /  18.6 °C 30.2 in /  1020.9 hPa SW 6 mph /  9.7 km/h 6 mph /  9.7 km/h 90 % 0 in /  0.0 mm
23:42 68.5 °F /  20.3 °C 65.5 °F /  18.6 °C 30.2 in /  1020.9 hPa SW 4 mph /  6.4 km/h 7 mph /  11.3 km/h 90 % 0 in /  0.0 mm
23:47 68.5 °F /  20.3 °C 65.5 °F /  18.6 °C 30.2 in /  1020.9 hPa WSW 4 mph /  6.4 km/h 7 mph /  11.3 km/h 90 % 0 in /  0.0 mm
23:57 68.5 °F /  20.3 °C 65.5 °F /  18.6 °C 30.2 in /  1020.9 hPa SW 5 mph /  8.0 km/h 8 mph /  12.9 km/h 90 % 0 in /  0.0 mm
Meteo18
Compliments of Weather Underground - 4 mb

Script developed by  Jim McMurry - jmcmurry@mwt.net Adapted for the template by  Wim van der Kuil - Leuven-Template.eu

You find our weather info also at:

European Weather Network

Weather Underground

Equipment we use:

Weather-station
Davis Vue

Weather-program
Meteohub

Weather-server
Raspberry PI 2 B+

Provider
1 and 1

Davis Vue

Meteohub

Raspberry PI 2 B+

1 and 1